Time;durP1;ratioP1;P1;durP2;ratioP2;P2;SDS_P1;SDS_P2;PMS_P1;PMS_P2;Temp;Humidity;BMP_temperature;BMP_pressure;BME280_temperature;BME280_humidity;BME280_pressure;Samples;Min_cycle;Max_cycle;Signal;HPM_P1;HPM_P2
2022/12/05 01:09:16;;;;;;;30.35;19.00;;;;;;;;;;6186395;23;20196;-90
2022/12/05 01:11:43;;;;;;;31.02;20.90;;;;;;;;;;6159462;23;20403;-89
2022/12/05 01:14:09;;;;;;;32.20;19.00;;;;;;;;;;6182423;23;20570;-90
2022/12/05 01:16:39;;;;;;;31.70;17.50;;;;;;;;;;6158813;23;20214;-92
2022/12/05 01:19:07;;;;;;;24.17;16.25;;;;;;;;;;6158513;23;20165;-90
2022/12/05 01:21:35;;;;;;;31.38;18.63;;;;;;;;;;6159139;23;20162;-90
2022/12/05 01:24:01;;;;;;;26.13;18.83;;;;;;;;;;6164077;23;20182;-90
2022/12/05 01:26:30;;;;;;;34.90;20.60;;;;;;;;;;6171451;23;20171;-89
2022/12/05 01:28:57;;;;;;;30.10;18.65;;;;;;;;;;6168822;23;20160;-90
2022/12/05 01:31:33;;;;;;;30.23;19.75;;;;;;;;;;6171617;23;20158;-90
2022/12/05 01:34:04;;;;;;;30.45;19.30;;;;;;;;;;6159175;23;20523;-90
2022/12/05 01:36:32;;;;;;;28.00;17.20;;;;;;;;;;6158896;23;20152;-91
2022/12/05 01:38:59;;;;;;;29.95;19.70;;;;;;;;;;6156962;23;20156;-90
2022/12/05 01:41:38;;;;;;;26.02;18.10;;;;;;;;;;6152556;23;20166;-91
2022/12/05 01:44:06;;;;;;;29.77;19.25;;;;;;;;;;6155439;23;20207;-91
2022/12/05 01:46:35;;;;;;;33.50;19.85;;;;;;;;;;6157416;23;20159;-91
2022/12/05 01:49:21;;;;;;;27.80;17.83;;;;;;;;;;6182159;23;20474;-90
2022/12/05 01:51:48;;;;;;;29.65;16.35;;;;;;;;;;6160615;23;20163;-93
2022/12/05 01:54:16;;;;;;;24.48;16.77;;;;;;;;;;6160007;23;20163;-91
2022/12/05 01:57:04;;;;;;;33.20;18.27;;;;;;;;;;6186894;23;20961;-91
2022/12/05 01:59:33;;;;;;;30.92;18.20;;;;;;;;;;6159462;23;20152;-91
2022/12/05 02:02:02;;;;;;;28.75;17.70;;;;;;;;;;6162193;23;20163;-90
2022/12/05 02:04:35;;;;;;;30.88;18.20;;;;;;;;;;6161782;23;20180;-90
2022/12/05 02:07:04;;;;;;;25.20;18.95;;;;;;;;;;6163775;23;20514;-91
2022/12/05 02:09:32;;;;;;;32.13;18.42;;;;;;;;;;6159115;23;20202;-89
2022/12/05 02:12:00;;;;;;;26.58;18.02;;;;;;;;;;6192299;23;20158;-91
2022/12/05 02:14:31;;;;;;;25.63;18.23;;;;;;;;;;6167557;23;20187;-90
2022/12/05 02:17:12;;;;;;;35.08;20.10;;;;;;;;;;6170521;23;20575;-92
2022/12/05 02:20:00;;;;;;;31.30;18.83;;;;;;;;;;6177966;23;20166;-92
2022/12/05 02:23:02;;;;;;;26.95;18.85;;;;;;;;;;6179801;23;20156;-90
2022/12/05 02:25:36;;;;;;;33.05;19.33;;;;;;;;;;6135980;23;20159;-91
2022/12/05 02:28:19;;;;;;;26.40;17.40;;;;;;;;;;6164225;23;20194;-90
2022/12/05 02:30:49;;;;;;;24.65;17.67;;;;;;;;;;6160743;23;20155;-92
2022/12/05 02:33:26;;;;;;;23.52;16.58;;;;;;;;;;6158926;23;20198;-90
2022/12/05 02:36:12;;;;;;;33.65;18.42;;;;;;;;;;6163164;23;20168;-92
2022/12/05 02:39:00;;;;;;;28.85;19.27;;;;;;;;;;6185601;23;20157;-91
2022/12/05 02:41:45;;;;;;;24.00;17.02;;;;;;;;;;6158915;23;20177;-90
2022/12/05 02:44:14;;;;;;;29.65;18.65;;;;;;;;;;6172459;23;20190;-91
2022/12/05 02:46:40;;;;;;;26.85;18.60;;;;;;;;;;6175237;23;20222;-90
2022/12/05 02:49:11;;;;;;;29.10;17.88;;;;;;;;;;6157189;23;20243;-91
2022/12/05 02:51:42;;;;;;;29.17;19.33;;;;;;;;;;6166077;23;20224;-91
2022/12/05 02:54:11;;;;;;;26.65;16.08;;;;;;;;;;6194338;23;20128;-91
2022/12/05 02:56:43;;;;;;;25.38;16.55;;;;;;;;;;6207369;23;20140;-90
2022/12/05 02:59:09;;;;;;;27.70;16.42;;;;;;;;;;6173031;23;20168;-92
2022/12/05 03:01:35;;;;;;;29.40;18.33;;;;;;;;;;6185522;23;20151;-90
2022/12/05 03:04:03;;;;;;;26.75;17.83;;;;;;;;;;6183123;23;20422;-92
2022/12/05 03:06:41;;;;;;;23.70;17.35;;;;;;;;;;6183402;23;20208;-91
2022/12/05 03:09:12;;;;;;;33.83;19.63;;;;;;;;;;6172886;23;20226;-91
2022/12/05 03:11:44;;;;;;;24.08;15.98;;;;;;;;;;6184393;23;20202;-90
2022/12/05 03:14:17;;;;;;;35.88;19.25;;;;;;;;;;6179326;23;20172;-90
2022/12/05 03:16:49;;;;;;;25.83;17.70;;;;;;;;;;6181465;23;20160;-91
2022/12/05 03:19:22;;;;;;;30.30;18.85;;;;;;;;;;6180588;23;20160;-90
2022/12/05 03:21:56;;;;;;;27.38;18.13;;;;;;;;;;6182063;23;20198;-91
2022/12/05 03:24:22;;;;;;;29.52;18.00;;;;;;;;;;6183351;23;20260;-92
2022/12/05 03:26:53;;;;;;;28.23;18.33;;;;;;;;;;6175163;23;20171;-92
2022/12/05 03:29:29;;;;;;;30.27;18.75;;;;;;;;;;6171247;23;20153;-92
2022/12/05 03:31:55;;;;;;;27.10;19.77;;;;;;;;;;6168652;23;20180;-92
2022/12/05 03:34:40;;;;;;;29.25;18.92;;;;;;;;;;6170424;23;20215;-92
2022/12/05 03:37:09;;;;;;;25.20;17.45;;;;;;;;;;6174573;23;20164;-92
2022/12/05 03:39:41;;;;;;;24.88;17.02;;;;;;;;;;6174822;23;20165;-90
2022/12/05 03:42:10;;;;;;;30.40;19.40;;;;;;;;;;6172216;23;20148;-92
2022/12/05 03:44:41;;;;;;;27.17;18.65;;;;;;;;;;6173707;23;20238;-91
2022/12/05 03:47:12;;;;;;;31.90;19.63;;;;;;;;;;6175683;23;20170;-92
2022/12/05 03:49:43;;;;;;;27.40;17.92;;;;;;;;;;6174800;23;20160;-91
2022/12/05 03:52:13;;;;;;;28.25;19.23;;;;;;;;;;6184105;23;20145;-91
2022/12/05 03:57:17;;;;;;;28.73;17.85;;;;;;;;;;6237273;22;20209;-91
2022/12/05 03:59:46;;;;;;;32.45;17.92;;;;;;;;;;6238861;22;20151;-92
2022/12/05 04:02:23;;;;;;;28.92;16.80;;;;;;;;;;6214378;22;20187;-92
2022/12/05 04:05:06;;;;;;;26.10;17.17;;;;;;;;;;6215937;22;20272;-92
2022/12/05 04:07:34;;;;;;;34.40;19.35;;;;;;;;;;6204490;23;20218;-92
2022/12/05 04:10:04;;;;;;;28.02;19.05;;;;;;;;;;6200878;23;20152;-91
2022/12/05 04:12:32;;;;;;;29.90;17.85;;;;;;;;;;6204980;23;20513;-92
2022/12/05 04:15:01;;;;;;;30.48;17.98;;;;;;;;;;6178162;23;20172;-92
2022/12/05 04:17:39;;;;;;;25.48;17.77;;;;;;;;;;6173978;23;20227;-92
2022/12/05 04:22:56;;;;;;;26.73;17.40;;;;;;;;;;6198754;23;20173;-92
2022/12/05 04:25:36;;;;;;;24.50;16.92;;;;;;;;;;6177186;22;20654;-93
2022/12/05 04:28:23;;;;;;;36.17;20.23;;;;;;;;;;6184908;23;20159;-93
2022/12/05 04:30:57;;;;;;;27.30;18.80;;;;;;;;;;6180550;23;20197;-92
2022/12/05 04:33:32;;;;;;;29.67;18.75;;;;;;;;;;6172758;23;20219;-92
2022/12/05 04:36:09;;;;;;;24.73;15.73;;;;;;;;;;6181513;23;20312;-91
2022/12/05 04:38:48;;;;;;;27.08;17.98;;;;;;;;;;6171210;23;20208;-92
2022/12/05 04:41:17;;;;;;;27.65;17.55;;;;;;;;;;6164291;23;20344;-92
2022/12/05 04:43:44;;;;;;;26.75;18.35;;;;;;;;;;6172666;23;20324;-91
2022/12/05 04:46:15;;;;;;;25.17;17.52;;;;;;;;;;6170510;23;20156;-91
2022/12/05 04:48:47;;;;;;;23.83;16.20;;;;;;;;;;6172471;23;20469;-91
2022/12/05 04:51:16;;;;;;;26.40;17.35;;;;;;;;;;6170966;23;20214;-91
2022/12/05 04:53:43;;;;;;;21.77;15.98;;;;;;;;;;6173307;23;20167;-91
2022/12/05 04:56:11;;;;;;;23.10;14.85;;;;;;;;;;6188122;23;20224;-91
2022/12/05 04:58:37;;;;;;;28.00;16.43;;;;;;;;;;6199537;23;20170;-91
2022/12/05 05:01:10;;;;;;;26.95;18.55;;;;;;;;;;6201016;23;20399;-91
2022/12/05 05:03:41;;;;;;;26.00;16.80;;;;;;;;;;6201476;23;20241;-92
2022/12/05 05:06:10;;;;;;;24.40;16.05;;;;;;;;;;6207258;23;20223;-92
2022/12/05 05:08:37;;;;;;;22.80;16.23;;;;;;;;;;6200980;23;20256;-92
2022/12/05 05:11:06;;;;;;;28.85;17.42;;;;;;;;;;6196305;23;20156;-93
2022/12/05 05:13:34;;;;;;;26.48;16.48;;;;;;;;;;6193276;23;20172;-92
2022/12/05 05:16:01;;;;;;;23.70;15.48;;;;;;;;;;6194262;23;20164;-91
2022/12/05 05:18:27;;;;;;;30.00;16.90;;;;;;;;;;6193549;23;20152;-92
2022/12/05 05:20:53;;;;;;;21.60;14.30;;;;;;;;;;6194128;23;20242;-91
2022/12/05 05:23:19;;;;;;;26.70;16.20;;;;;;;;;;6191447;23;20231;-93
2022/12/05 05:25:46;;;;;;;29.33;15.43;;;;;;;;;;6193845;23;20381;-92
2022/12/05 05:28:14;;;;;;;24.63;15.27;;;;;;;;;;6197909;23;20197;-92
2022/12/05 05:30:40;;;;;;;22.98;15.10;;;;;;;;;;6199886;23;20385;-91
2022/12/05 05:33:06;;;;;;;23.25;15.80;;;;;;;;;;6192042;23;20160;-92
2022/12/05 05:35:35;;;;;;;17.95;13.35;;;;;;;;;;6196033;23;20218;-92
2022/12/05 05:38:07;;;;;;;28.27;17.58;;;;;;;;;;6193925;23;20210;-92
2022/12/05 05:40:36;;;;;;;28.15;17.48;;;;;;;;;;6194385;23;20144;-93
2022/12/05 05:43:03;;;;;;;22.77;15.68;;;;;;;;;;6188164;23;20191;-90
2022/12/05 05:45:29;;;;;;;25.55;15.88;;;;;;;;;;6190996;23;20191;-92
2022/12/05 05:47:55;;;;;;;22.95;16.73;;;;;;;;;;6193145;23;20605;-92
2022/12/05 05:50:22;;;;;;;20.30;13.40;;;;;;;;;;6193620;23;20167;-91
2022/12/05 05:52:48;;;;;;;21.58;14.90;;;;;;;;;;6192628;23;20148;-91
2022/12/05 05:55:14;;;;;;;19.75;14.50;;;;;;;;;;6190566;23;20156;-92
2022/12/05 05:57:41;;;;;;;18.13;15.20;;;;;;;;;;6195403;23;20189;-94
2022/12/05 06:00:07;;;;;;;23.13;15.60;;;;;;;;;;6193553;23;20219;-92
2022/12/05 06:02:34;;;;;;;25.67;15.35;;;;;;;;;;6169883;23;20187;-92
2022/12/05 06:05:02;;;;;;;26.77;16.85;;;;;;;;;;6168677;23;20192;-92
2022/12/05 06:07:28;;;;;;;19.85;16.27;;;;;;;;;;6146610;23;20471;-94
2022/12/05 06:10:00;;;;;;;29.23;16.85;;;;;;;;;;6166672;23;20152;-89
2022/12/05 06:12:26;;;;;;;24.23;15.50;;;;;;;;;;6167260;23;20141;-94
2022/12/05 06:14:52;;;;;;;27.77;14.68;;;;;;;;;;6167065;23;20633;-93
2022/12/05 06:17:18;;;;;;;20.88;13.93;;;;;;;;;;6166919;23;20169;-91
2022/12/05 06:19:44;;;;;;;25.00;13.57;;;;;;;;;;6166636;23;20386;-93
2022/12/05 06:22:10;;;;;;;22.35;15.45;;;;;;;;;;6167147;23;20186;-93
2022/12/05 06:24:38;;;;;;;28.73;15.95;;;;;;;;;;6168880;23;20192;-93
2022/12/05 06:27:07;;;;;;;22.80;13.88;;;;;;;;;;6196993;23;20156;-93
2022/12/05 06:29:39;;;;;;;21.60;13.98;;;;;;;;;;6170400;23;20200;-90
2022/12/05 06:32:06;;;;;;;23.02;14.63;;;;;;;;;;6173488;23;20156;-91
2022/12/05 06:34:34;;;;;;;24.85;13.05;;;;;;;;;;6176953;23;20681;-91
2022/12/05 06:37:05;;;;;;;25.05;15.90;;;;;;;;;;6176128;23;20156;-89
2022/12/05 06:39:42;;;;;;;23.58;15.27;;;;;;;;;;6177813;23;20159;-93
2022/12/05 06:42:12;;;;;;;18.45;12.95;;;;;;;;;;6157813;23;20148;-90
2022/12/05 06:44:46;;;;;;;24.40;15.13;;;;;;;;;;6160601;23;20191;-93
2022/12/05 06:47:14;;;;;;;20.48;15.32;;;;;;;;;;6164216;23;20334;-90
2022/12/05 06:49:40;;;;;;;20.23;15.27;;;;;;;;;;6162928;23;20630;-90
2022/12/05 06:52:06;;;;;;;24.10;15.10;;;;;;;;;;6181657;23;20152;-89
2022/12/05 08:11:27;;;;;;;21.20;15.93;;;;;;;;;;6202528;23;20223;-91
2022/12/05 08:13:54;;;;;;;23.13;15.18;;;;;;;;;;6180368;23;20197;-92
2022/12/05 08:16:30;;;;;;;22.77;15.65;;;;;;;;;;6179276;23;20454;-92
2022/12/05 08:19:00;;;;;;;22.00;14.50;;;;;;;;;;6180183;23;20147;-88
2022/12/05 08:42:29;;;;;;;22.05;15.57;;;;;;;;;;6183525;23;20571;-94
2022/12/05 08:45:03;;;;;;;26.63;15.10;;;;;;;;;;6207098;23;20160;-94
2022/12/05 08:50:19;;;;;;;20.58;14.88;;;;;;;;;;6163955;23;20153;-90
2022/12/05 08:53:16;;;;;;;21.90;15.13;;;;;;;;;;6174357;23;20191;-92
2022/12/05 08:55:49;;;;;;;21.98;14.60;;;;;;;;;;6175881;23;20164;-93
2022/12/05 10:00:39;;;;;;;18.08;12.65;;;;;;;;;;6191604;23;20281;-90
2022/12/05 10:03:28;;;;;;;13.65;10.88;;;;;;;;;;6173719;23;20154;-91
2022/12/05 10:06:13;;;;;;;24.42;14.60;;;;;;;;;;6202974;23;20410;-91
2022/12/05 10:55:41;;;;;;;14.82;11.88;;;;;;;;;;6174048;23;20208;-89
2022/12/05 10:58:30;;;;;;;13.38;11.70;;;;;;;;;;6197663;23;20205;-90
2022/12/05 11:01:17;;;;;;;12.82;11.10;;;;;;;;;;6174370;23;20251;-90
2022/12/05 11:04:02;;;;;;;14.63;11.70;;;;;;;;;;6156721;23;20705;-89
2022/12/05 11:06:32;;;;;;;13.45;11.25;;;;;;;;;;6155028;23;20537;-89
2022/12/05 11:09:05;;;;;;;10.25;9.30;;;;;;;;;;6157865;23;20306;-87
2022/12/05 11:11:32;;;;;;;11.95;10.68;;;;;;;;;;6156204;23;20160;-85
2022/12/05 11:14:03;;;;;;;13.48;10.75;;;;;;;;;;6158364;23;20176;-90
2022/12/05 11:16:51;;;;;;;13.38;11.25;;;;;;;;;;6158453;23;20164;-92
2022/12/05 11:20:01;;;;;;;11.70;10.63;;;;;;;;;;6185544;23;20142;-90
2022/12/05 11:46:18;;;;;;;12.50;11.20;;;;;;;;;;6191465;23;20657;-90
2022/12/05 11:49:03;;;;;;;12.10;10.90;;;;;;;;;;6167807;23;20148;-92
2022/12/05 11:51:57;;;;;;;13.90;11.90;;;;;;;;;;6177992;23;20166;-91
2022/12/05 11:54:32;;;;;;;14.23;11.45;;;;;;;;;;6175767;23;20145;-91
2022/12/05 11:57:06;;;;;;;13.05;11.02;;;;;;;;;;6178952;23;20310;-90
2022/12/05 11:59:43;;;;;;;13.60;12.20;;;;;;;;;;6176950;23;20164;-92
2022/12/05 12:02:31;;;;;;;11.27;10.15;;;;;;;;;;6175646;23;20159;-93
2022/12/05 12:04:57;;;;;;;12.50;11.05;;;;;;;;;;6175948;23;20452;-89
2022/12/05 12:25:54;;;;;;;13.70;11.77;;;;;;;;;;6178778;23;20225;-92
2022/12/05 12:38:51;;;;;;;13.57;10.45;;;;;;;;;;6194696;22;20204;-89
2022/12/05 12:41:42;;;;;;;14.50;10.75;;;;;;;;;;6168976;23;21237;-91
2022/12/05 12:44:17;;;;;;;9.70;8.55;;;;;;;;;;6178208;23;20183;-91
2022/12/05 12:47:00;;;;;;;11.48;9.95;;;;;;;;;;6190574;23;20285;-90
2022/12/05 12:49:47;;;;;;;12.73;11.48;;;;;;;;;;6164560;23;20492;-90
2022/12/05 12:52:14;;;;;;;19.55;12.48;;;;;;;;;;6162672;23;20218;-91
2022/12/05 12:55:00;;;;;;;14.48;10.98;;;;;;;;;;6163486;23;20248;-90
2022/12/05 12:57:34;;;;;;;14.10;10.52;;;;;;;;;;6156075;23;20545;-89
2022/12/05 13:00:05;;;;;;;13.02;11.10;;;;;;;;;;6184116;23;20203;-90
2022/12/05 13:02:36;;;;;;;14.10;11.93;;;;;;;;;;6157594;23;20161;-91
2022/12/05 13:05:24;;;;;;;15.43;10.90;;;;;;;;;;6162983;23;20186;-90
2022/12/05 13:07:57;;;;;;;12.40;11.00;;;;;;;;;;6164116;23;20246;-88
2022/12/05 13:10:52;;;;;;;13.48;11.57;;;;;;;;;;6165543;23;20235;-90
2022/12/05 13:13:32;;;;;;;13.63;10.98;;;;;;;;;;6172587;23;20196;-92
2022/12/05 13:16:00;;;;;;;11.90;10.65;;;;;;;;;;6179446;23;20496;-91
2022/12/05 13:18:29;;;;;;;11.75;9.85;;;;;;;;;;6176314;23;20148;-91
2022/12/05 13:20:56;;;;;;;11.38;10.18;;;;;;;;;;6180106;23;20160;-91
2022/12/05 13:24:06;;;;;;;13.13;10.98;;;;;;;;;;6173213;23;20164;-91
2022/12/05 13:26:34;;;;;;;14.77;11.70;;;;;;;;;;6021835;23;20164;-90
2022/12/05 13:29:01;;;;;;;19.23;12.90;;;;;;;;;;6048249;23;20155;-90
2022/12/05 13:31:41;;;;;;;14.65;12.10;;;;;;;;;;6117865;23;20156;-91
2022/12/05 13:34:28;;;;;;;17.35;12.10;;;;;;;;;;6169983;23;20144;-93
2022/12/05 13:51:03;;;;;;;16.48;12.60;;;;;;;;;;6195511;22;20210;-94
2022/12/05 13:53:43;;;;;;;17.10;14.55;;;;;;;;;;6149126;23;20189;-92
2022/12/05 13:56:12;;;;;;;21.63;15.15;;;;;;;;;;6203780;23;20177;-93
2022/12/05 13:58:46;;;;;;;18.15;13.57;;;;;;;;;;6201915;23;20155;-93
2022/12/05 14:01:25;;;;;;;16.50;13.43;;;;;;;;;;6199495;23;20600;-94
2022/12/05 14:03:54;;;;;;;18.08;13.65;;;;;;;;;;6234003;23;20168;-90
2022/12/05 14:06:38;;;;;;;14.30;11.82;;;;;;;;;;6208305;22;20183;-94
2022/12/05 14:09:25;;;;;;;21.10;12.48;;;;;;;;;;6210539;23;20151;-94
2022/12/05 14:12:26;;;;;;;17.73;13.68;;;;;;;;;;6210947;23;20162;-93
2022/12/05 14:15:32;;;;;;;13.30;11.88;;;;;;;;;;6183793;23;20172;-91
2022/12/05 14:26:18;;;;;;;16.83;11.10;;;;;;;;;;6187261;23;20277;-94
2022/12/05 14:29:03;;;;;;;15.20;12.45;;;;;;;;;;6171036;23;20157;-94
2022/12/05 14:31:48;;;;;;;23.38;14.65;;;;;;;;;;6142595;23;20224;-93
2022/12/05 14:34:26;;;;;;;16.63;12.23;;;;;;;;;;6139989;23;20188;-92
2022/12/05 14:37:04;;;;;;;22.70;14.27;;;;;;;;;;6136380;23;20213;-92
2022/12/05 15:05:33;;;;;;;20.80;15.40;;;;;;;;;;6190211;23;20211;-92
2022/12/05 15:08:07;;;;;;;22.90;15.77;;;;;;;;;;6175267;23;20152;-92
2022/12/05 15:11:05;;;;;;;14.98;12.02;;;;;;;;;;6204096;23;20162;-90
2022/12/05 15:13:45;;;;;;;16.58;12.82;;;;;;;;;;6201492;23;20574;-94
2022/12/05 15:16:23;;;;;;;18.60;13.35;;;;;;;;;;6146090;23;20171;-90
2022/12/05 15:18:57;;;;;;;19.55;14.15;;;;;;;;;;6199712;23;20211;-91
2022/12/05 15:40:20;;;;;;;15.32;12.60;;;;;;;;;;6183333;23;20199;-91
2022/12/05 15:42:49;;;;;;;14.45;12.98;;;;;;;;;;6178759;23;20164;-90
2022/12/05 15:45:20;;;;;;;19.52;12.48;;;;;;;;;;6180486;23;20246;-94
2022/12/05 15:47:49;;;;;;;15.32;12.48;;;;;;;;;;6181080;23;20179;-92
2022/12/05 15:50:16;;;;;;;18.95;14.15;;;;;;;;;;6173004;23;20168;-92
2022/12/05 15:52:54;;;;;;;14.30;11.90;;;;;;;;;;6193015;23;20215;-93
2022/12/05 15:55:32;;;;;;;13.57;11.90;;;;;;;;;;6168906;23;20163;-93
2022/12/05 15:58:16;;;;;;;17.65;12.82;;;;;;;;;;6173207;23;20156;-91
2022/12/05 16:00:56;;;;;;;15.50;12.57;;;;;;;;;;6168761;23;20156;-92
2022/12/05 16:03:56;;;;;;;14.07;12.48;;;;;;;;;;6193215;23;20156;-91
2022/12/05 16:06:57;;;;;;;13.57;11.00;;;;;;;;;;6170094;23;20217;-92
2022/12/05 16:09:30;;;;;;;18.88;13.27;;;;;;;;;;6056880;23;20171;-92
2022/12/05 16:12:25;;;;;;;;;;;;;;;;;;;;;
2022/12/05 16:41:54;;;;;;;12.35;10.85;;;;;;;;;;6113081;23;20273;-90
2022/12/05 16:44:38;;;;;;;18.55;13.10;;;;;;;;;;6030496;23;20230;-92
2022/12/05 16:47:27;;;;;;;;;;;;;;;;;;;;;
2022/12/05 16:50:16;;;;;;;17.90;11.68;;;;;;;;;;6197675;23;20564;-91
2022/12/05 16:52:59;;;;;;;15.18;11.98;;;;;;;;;;6190666;23;20156;-91
2022/12/05 17:01:27;;;;;;;17.10;12.80;;;;;;;;;;6183876;23;20183;-90
2022/12/05 17:22:08;;;;;;;9.40;8.68;;;;;;;;;;6175113;23;20207;-87
2022/12/05 17:24:43;;;;;;;11.10;9.98;;;;;;;;;;6167561;23;20205;-92
2022/12/05 17:27:10;;;;;;;11.65;10.05;;;;;;;;;;6164596;23;20156;-89
2022/12/05 17:29:37;;;;;;;11.10;10.00;;;;;;;;;;6174575;23;20161;-89
2022/12/05 17:32:05;;;;;;;10.07;9.18;;;;;;;;;;6179608;23;20208;-88
2022/12/05 17:35:05;;;;;;;10.13;9.23;;;;;;;;;;6177713;23;20215;-91
2022/12/05 17:37:34;;;;;;;12.27;11.07;;;;;;;;;;6154552;23;20628;-91
2022/12/05 17:40:11;;;;;;;11.60;10.48;;;;;;;;;;6197569;23;20145;-91
2022/12/05 17:42:48;;;;;;;11.27;9.93;;;;;;;;;;6164311;23;20271;-87
2022/12/05 17:45:23;;;;;;;12.25;10.10;;;;;;;;;;6165201;23;20202;-92
2022/12/05 17:48:05;;;;;;;;;;;;;;;;;;;;;
2022/12/05 17:50:32;;;;;;;13.05;11.80;;;;;;;;;;6190469;23;20594;-93
2022/12/05 17:52:58;;;;;;;16.58;13.75;;;;;;;;;;6171284;23;20163;-90
2022/12/05 17:55:52;;;;;;;;;;;;;;;;;;;;;
2022/12/05 20:22:47;;;;;;;14.85;11.40;;;;;;;;;;6187910;22;20200;-88
2022/12/05 20:25:13;;;;;;;18.27;14.40;;;;;;;;;;6182193;23;20181;-88
2022/12/05 20:27:40;;;;;;;15.38;10.95;;;;;;;;;;6155559;23;20399;-89
2022/12/05 20:30:06;;;;;;;16.55;12.15;;;;;;;;;;6156310;23;20163;-90
2022/12/05 20:32:34;;;;;;;15.60;12.70;;;;;;;;;;6159275;23;20231;-90
2022/12/05 20:35:00;;;;;;;17.33;13.20;;;;;;;;;;6159630;23;20195;-88
2022/12/05 20:37:26;;;;;;;16.42;13.05;;;;;;;;;;6160997;23;20207;-89
2022/12/05 20:39:56;;;;;;;16.45;13.98;;;;;;;;;;6169342;23;20167;-91
2022/12/05 20:42:52;;;;;;;14.80;12.30;;;;;;;;;;6200963;23;20160;-91
2022/12/05 20:45:32;;;;;;;15.82;13.85;;;;;;;;;;6181713;23;20229;-90
2022/12/05 21:30:15;;;;;;;14.57;12.32;;;;;;;;;;6190999;22;20226;-90
2022/12/05 21:33:19;;;;;;;;;;;;;;;;;;;;;
2022/12/05 21:36:29;;;;;;;15.07;12.88;;;;;;;;;;6173711;23;20186;-91
2022/12/05 21:39:14;;;;;;;;;;;;;;;;;;;;;
